• Modellbau
    Modellbau Unsere Modellbauer lassen ihre Fluggeräte zu neuen Rekorden aufsteigen.
  • Motorflug
    Motorflug Unseren Piloten steht ein moderner Flugzeugpark zur Verfügung.
  • Segelflug
    Segelflug Im Gleitflug genießen unsere Segelflieger die Freiheit über den Wolken.

Neuigkeiten

Wetter

Webcam

LIVEBILD VOM FLUGPLATZ

image

Rufen Sie auch unser Tagesarchiv auf!

Wetterstation

MESSWERTE UNSERER WETTERSTATION
Wind 263° 01 kn (Böen 05 kn)
Temperatur 16.6 °C
Luftdruck 1014 hPa
Zeitpunkt: 19:13 Ortszeit

METAR Stuttgart

OHNE GEWÄHR
EDDS 211650Z 30006KT 240V330 9999 VCSH FEW060CB 17/02 Q1014 NOSIG

Seite durchsuchen

Über uns

image Gemeinsam gehen wir im Verein unserem Hobby, der Fliegerei, nach - im Segelflug, Modellbau und Motorflug.
 
image Wir verfügen über moderne Fluggeräte und bieten eine hochwertige Pilotenausbildung.
 
image Unser Flugplatz liegt bei Stuttgart in Poltringen / Ammerbuch. Besuchen Sie uns doch einmal!
 

Termine

Derzeit sind keine öffentlichen Termine hinterlegt.